Time;durP1;ratioP1;P1;durP2;ratioP2;P2;SDS_P1;SDS_P2;PMS_P1;PMS_P2;Temp;Humidity;BMP_temperature;BMP_pressure;BME280_temperature;BME280_humidity;BME280_pressure;Samples;Min_cycle;Max_cycle;Signal;HPM_P1;HPM_P2
2023/01/14 00:01:24;;;;;;;3.80;0.90;;;6.10;99.90;;;;;;5074143;28;20041;-72
2023/01/14 00:03:50;;;;;;;0.70;0.70;;;6.10;99.90;;;;;;5072973;28;20044;-72
2023/01/14 00:06:20;;;;;;;1.98;1.35;;;6.20;99.90;;;;;;5074067;28;20031;-72
2023/01/14 00:08:46;;;;;;;1.23;1.13;;;6.10;99.90;;;;;;5074462;28;20042;-72
2023/01/14 00:11:13;;;;;;;1.75;1.20;;;6.10;99.90;;;;;;5074347;28;20394;-72
2023/01/14 00:13:40;;;;;;;3.28;0.70;;;6.00;99.90;;;;;;5074109;28;20086;-72
2023/01/14 00:16:09;;;;;;;5.18;1.65;;;6.00;99.90;;;;;;5074012;28;20025;-72
2023/01/14 00:18:35;;;;;;;0.90;0.90;;;6.00;99.90;;;;;;5073742;28;20486;-72
2023/01/14 00:21:11;;;;;;;4.60;1.50;;;6.00;99.90;;;;;;5073743;28;20078;-73
2023/01/14 00:23:37;;;;;;;2.50;1.15;;;6.00;99.90;;;;;;5073847;28;20028;-74
2023/01/14 00:26:14;;;;;;;1.23;1.20;;;6.00;99.90;;;;;;5073731;28;20024;-73
2023/01/14 00:28:40;;;;;;;1.30;0.88;;;6.00;99.90;;;;;;5085777;28;20045;-73
2023/01/14 00:31:12;;;;;;;1.98;1.15;;;6.00;99.90;;;;;;5073840;28;20095;-73
2023/01/14 00:33:38;;;;;;;1.30;1.30;;;6.00;99.90;;;;;;5073685;28;20028;-73
2023/01/14 00:36:06;;;;;;;0.70;0.70;;;6.00;99.90;;;;;;5080444;28;20453;-72
2023/01/14 00:38:32;;;;;;;0.73;0.73;;;6.00;99.90;;;;;;5073375;28;20028;-73
2023/01/14 00:41:06;;;;;;;0.80;0.80;;;6.00;99.90;;;;;;5073244;28;20031;-73
2023/01/14 00:43:35;;;;;;;1.05;1.05;;;6.00;99.90;;;;;;5073562;28;20020;-73
2023/01/14 00:46:02;;;;;;;1.42;1.30;;;6.00;99.90;;;;;;5072197;28;20151;-72
2023/01/14 00:48:27;;;;;;;8.85;1.65;;;6.00;99.90;;;;;;5073094;28;20028;-73
2023/01/14 00:50:53;;;;;;;1.30;1.08;;;6.00;99.90;;;;;;5071974;28;20025;-72
2023/01/14 00:53:18;;;;;;;0.95;0.95;;;6.00;99.90;;;;;;5073283;28;20529;-72
2023/01/14 00:55:44;;;;;;;0.77;0.77;;;5.90;99.90;;;;;;5073197;28;20052;-72
2023/01/14 00:58:10;;;;;;;0.80;0.80;;;6.00;99.90;;;;;;5073006;28;20082;-72
2023/01/14 01:00:35;;;;;;;0.68;0.68;;;5.90;99.90;;;;;;5071773;28;20073;-73
2023/01/14 01:03:01;;;;;;;0.70;0.70;;;5.90;99.90;;;;;;5071707;28;20115;-73
2023/01/14 01:05:26;;;;;;;0.60;0.60;;;5.90;99.90;;;;;;5071705;28;20035;-73
2023/01/14 01:07:52;;;;;;;0.95;0.90;;;5.90;99.90;;;;;;5072693;28;20025;-73
2023/01/14 01:10:17;;;;;;;0.70;0.70;;;5.90;99.90;;;;;;5072997;28;20390;-73
2023/01/14 01:12:43;;;;;;;1.33;1.30;;;5.90;99.90;;;;;;5071569;28;20393;-73
2023/01/14 01:15:09;;;;;;;0.80;0.80;;;5.90;99.90;;;;;;5073014;28;20392;-74
2023/01/14 01:17:35;;;;;;;1.33;1.33;;;5.90;99.90;;;;;;5072458;28;20028;-72
2023/01/14 01:20:00;;;;;;;0.93;0.93;;;5.90;99.90;;;;;;5071152;28;20032;-72
2023/01/14 01:22:28;;;;;;;1.13;1.13;;;5.90;99.90;;;;;;5072685;28;20020;-73
2023/01/14 01:24:54;;;;;;;1.00;1.00;;;5.90;99.90;;;;;;5072764;28;20117;-73
2023/01/14 01:27:19;;;;;;;0.90;0.90;;;5.80;99.90;;;;;;5074316;28;20040;-72
2023/01/14 01:29:45;;;;;;;0.80;0.80;;;5.80;99.90;;;;;;5082657;28;20024;-73
2023/01/14 01:32:10;;;;;;;0.70;0.70;;;5.80;99.90;;;;;;5072462;28;20025;-72
2023/01/14 01:34:36;;;;;;;1.25;1.25;;;5.80;99.90;;;;;;5074348;28;20027;-73
2023/01/14 01:37:02;;;;;;;3.35;1.48;;;5.80;99.90;;;;;;5078755;22;20382;-72
2023/01/14 01:39:27;;;;;;;2.25;1.85;;;5.80;99.90;;;;;;5052612;28;20071;-73
2023/01/14 01:41:53;;;;;;;0.82;0.82;;;5.80;99.90;;;;;;5051062;28;20039;-73
2023/01/14 01:44:18;;;;;;;0.70;0.70;;;5.80;99.90;;;;;;5052506;28;20025;-73
2023/01/14 01:46:44;;;;;;;0.90;0.90;;;5.90;99.90;;;;;;5035975;28;20040;-73
2023/01/14 01:49:39;;;;;;;1.00;1.00;;;5.80;99.90;;;;;;5041949;28;20124;-74
2023/01/14 01:52:16;;;;;;;1.40;1.40;;;5.80;99.90;;;;;;5035727;28;20075;-73
2023/01/14 01:54:47;;;;;;;0.80;0.80;;;5.80;99.90;;;;;;5048093;28;20108;-73
2023/01/14 01:57:15;;;;;;;0.90;0.90;;;5.80;99.90;;;;;;5051933;28;20021;-73
2023/01/14 01:59:45;;;;;;;1.00;1.00;;;5.90;99.90;;;;;;5052163;28;20029;-73
2023/01/14 02:02:11;;;;;;;1.00;1.00;;;5.80;99.90;;;;;;5042409;28;20403;-73
2023/01/14 02:04:37;;;;;;;1.20;1.10;;;5.80;99.90;;;;;;5052020;28;20017;-73
2023/01/14 02:07:11;;;;;;;0.98;0.98;;;5.80;99.90;;;;;;5051938;28;20074;-74
2023/01/14 02:09:37;;;;;;;1.00;1.00;;;5.80;99.90;;;;;;5052186;28;20036;-73
2023/01/14 02:12:20;;;;;;;1.02;1.02;;;5.80;99.90;;;;;;5050747;28;20170;-73
2023/01/14 02:15:10;;;;;;;1.05;1.05;;;5.80;99.90;;;;;;5052269;28;20503;-73
2023/01/14 02:18:17;;;;;;;0.80;0.80;;;5.80;99.90;;;;;;5046868;28;20025;-73
2023/01/14 02:20:59;;;;;;;0.80;0.80;;;5.80;99.90;;;;;;5034342;28;20187;-73
2023/01/14 02:23:39;;;;;;;0.80;0.80;;;5.80;99.90;;;;;;5051808;28;20493;-72
2023/01/14 02:26:31;;;;;;;1.05;1.05;;;5.80;99.90;;;;;;5051815;28;20021;-73
2023/01/14 02:29:27;;;;;;;2.38;1.83;;;5.80;99.90;;;;;;5046885;28;20021;-72
2023/01/14 02:32:21;;;;;;;2.72;2.47;;;5.80;99.90;;;;;;5032155;28;20025;-73
2023/01/14 02:35:05;;;;;;;5.35;1.98;;;5.80;99.90;;;;;;5030982;28;20506;-72
2023/01/14 02:37:44;;;;;;;6.05;1.73;;;5.80;99.90;;;;;;5038846;28;20413;-72
2023/01/14 02:40:42;;;;;;;2.55;2.33;;;5.80;99.90;;;;;;5051808;28;20565;-72
2023/01/14 02:46:18;;;;;;;1.08;1.08;;;5.90;99.90;;;;;;5051980;28;20075;-73
2023/01/14 02:48:45;;;;;;;1.92;1.85;;;5.90;99.90;;;;;;5050396;28;20022;-72
2023/01/14 02:51:11;;;;;;;1.15;1.15;;;5.90;99.90;;;;;;5050662;28;20040;-73
2023/01/14 02:53:37;;;;;;;1.45;1.42;;;5.90;99.90;;;;;;5051676;28;20076;-72
2023/01/14 02:56:03;;;;;;;2.58;1.95;;;5.90;99.90;;;;;;5037763;28;20495;-73
2023/01/14 02:58:52;;;;;;;1.63;1.58;;;5.90;99.90;;;;;;5031263;28;20049;-73
2023/01/14 03:01:31;;;;;;;3.13;2.03;;;5.80;99.90;;;;;;5031326;28;20109;-73
2023/01/14 03:03:59;;;;;;;1.38;1.38;;;5.80;99.90;;;;;;5033211;28;20107;-74
2023/01/14 03:06:59;;;;;;;1.85;1.75;;;5.80;99.90;;;;;;5035251;28;20386;-74
2023/01/14 03:09:42;;;;;;;1.02;1.02;;;5.80;99.90;;;;;;5034156;28;20345;-73
2023/01/14 03:12:34;;;;;;;3.35;1.73;;;5.80;99.90;;;;;;5035526;28;20051;-73
2023/01/14 03:15:21;;;;;;;1.17;1.17;;;5.80;99.90;;;;;;5035373;28;20021;-73
2023/01/14 03:17:58;;;;;;;1.40;1.20;;;5.80;99.90;;;;;;5033681;28;20033;-73
2023/01/14 03:20:29;;;;;;;1.92;1.83;;;5.80;99.90;;;;;;5035138;28;20112;-73
2023/01/14 03:22:57;;;;;;;1.58;1.48;;;5.70;99.90;;;;;;5035341;28;20491;-73
2023/01/14 03:25:25;;;;;;;1.88;1.77;;;5.70;99.90;;;;;;5035285;28;20425;-73
2023/01/14 03:27:53;;;;;;;6.05;4.25;;;5.70;99.90;;;;;;5042318;28;20474;-74
2023/01/14 03:30:26;;;;;;;1.15;1.15;;;5.60;99.90;;;;;;5040998;28;20122;-74
2023/01/14 03:33:02;;;;;;;2.08;1.98;;;5.70;99.90;;;;;;5033950;28;20514;-72
2023/01/14 03:35:35;;;;;;;1.13;1.13;;;5.70;99.90;;;;;;5041001;28;20060;-72
2023/01/14 03:38:08;;;;;;;1.20;1.20;;;5.70;99.90;;;;;;5045528;28;20033;-72
2023/01/14 03:40:35;;;;;;;0.90;0.90;;;5.70;99.90;;;;;;5049983;28;20021;-72
2023/01/14 03:43:08;;;;;;;1.00;1.00;;;5.70;99.90;;;;;;5045766;28;20513;-72
2023/01/14 03:45:37;;;;;;;0.88;0.88;;;5.70;99.90;;;;;;5054691;28;20029;-72
2023/01/14 03:48:04;;;;;;;1.02;1.02;;;5.70;99.90;;;;;;5054611;28;20052;-72
2023/01/14 03:50:45;;;;;;;0.98;0.98;;;5.70;99.90;;;;;;5033892;28;20021;-73
2023/01/14 03:53:15;;;;;;;1.10;1.10;;;5.70;99.90;;;;;;5033747;28;20079;-74
2023/01/14 03:56:09;;;;;;;0.90;0.90;;;5.60;99.90;;;;;;5035316;28;20037;-74
2023/01/14 03:59:05;;;;;;;0.95;0.95;;;5.60;99.90;;;;;;5034726;28;20022;-73
2023/01/14 04:01:46;;;;;;;;;;;5.60;99.90;;;;;;5035255;28;20037;-73
2023/01/14 04:04:12;;;;;;;2.47;1.33;;;5.60;99.90;;;;;;5034943;28;20302;-72
2023/01/14 04:06:38;;;;;;;0.93;0.93;;;5.60;99.90;;;;;;5040034;28;20040;-73
2023/01/14 04:09:08;;;;;;;0.95;0.95;;;5.60;99.90;;;;;;5054501;28;20014;-73
2023/01/14 04:11:34;;;;;;;1.00;1.00;;;5.50;99.90;;;;;;5054435;28;20028;-73
2023/01/14 04:16:44;;;;;;;1.27;1.27;;;5.50;99.90;;;;;;5042212;28;20036;-73
2023/01/14 04:19:09;;;;;;;1.10;1.10;;;5.50;99.90;;;;;;5054284;28;20032;-73
2023/01/14 04:21:35;;;;;;;1.15;1.15;;;5.50;99.90;;;;;;5052729;28;20024;-73
2023/01/14 04:24:00;;;;;;;3.55;1.85;;;5.40;99.90;;;;;;5052749;28;20502;-72
2023/01/14 04:26:28;;;;;;;1.80;1.70;;;5.40;99.90;;;;;;5033968;28;20498;-72
2023/01/14 04:28:54;;;;;;;1.08;1.08;;;5.40;99.90;;;;;;5047187;28;20017;-72
2023/01/14 04:31:19;;;;;;;1.10;1.10;;;5.40;99.90;;;;;;5033921;28;20490;-72
2023/01/14 04:33:45;;;;;;;1.00;1.00;;;5.50;99.90;;;;;;5032550;28;20025;-72
2023/01/14 04:36:10;;;;;;;2.03;1.55;;;5.50;99.90;;;;;;5040586;28;20052;-71
2023/01/14 04:38:36;;;;;;;2.65;1.23;;;5.50;99.90;;;;;;5033519;28;20041;-71
2023/01/14 04:41:02;;;;;;;1.65;1.55;;;5.50;99.90;;;;;;5033685;28;20073;-73
2023/01/14 04:43:27;;;;;;;0.85;0.85;;;5.50;99.90;;;;;;5033613;28;20026;-72
2023/01/14 04:45:53;;;;;;;1.35;1.35;;;5.50;99.90;;;;;;5033467;28;20092;-73
2023/01/14 04:48:21;;;;;;;1.17;1.17;;;5.50;99.90;;;;;;5033368;28;20087;-73
2023/01/14 04:50:47;;;;;;;0.82;0.82;;;5.50;99.90;;;;;;5033527;28;20456;-73
2023/01/14 04:53:15;;;;;;;1.50;1.48;;;5.50;99.90;;;;;;5033463;28;20045;-72
2023/01/14 04:55:43;;;;;;;2.85;1.67;;;5.50;99.90;;;;;;5041703;28;20533;-72
2023/01/14 04:58:11;;;;;;;0.93;0.93;;;5.50;99.90;;;;;;5053033;28;20287;-72
2023/01/14 05:00:37;;;;;;;1.20;1.20;;;5.50;99.90;;;;;;5053119;28;20091;-73
2023/01/14 05:03:04;;;;;;;0.90;0.90;;;5.40;99.90;;;;;;5053130;28;20029;-73
2023/01/14 05:05:31;;;;;;;6.88;1.65;;;5.40;99.90;;;;;;5053225;28;20075;-72
2023/01/14 05:07:57;;;;;;;1.10;1.10;;;5.40;99.90;;;;;;5052803;28;20486;-72
2023/01/14 05:10:23;;;;;;;1.67;1.25;;;5.40;99.90;;;;;;5053155;28;20036;-72
2023/01/14 05:12:57;;;;;;;1.00;1.00;;;5.40;99.90;;;;;;5052932;28;20021;-72
2023/01/14 05:15:30;;;;;;;1.58;1.48;;;5.40;99.90;;;;;;5052960;28;20031;-73
2023/01/14 05:17:56;;;;;;;0.90;0.90;;;5.40;99.90;;;;;;5033596;28;20032;-72
2023/01/14 05:20:25;;;;;;;1.13;1.13;;;5.40;99.90;;;;;;5045462;28;20021;-72
2023/01/14 05:22:51;;;;;;;1.02;1.02;;;5.40;99.90;;;;;;5053095;28;20087;-72
2023/01/14 05:25:17;;;;;;;3.38;2.25;;;5.40;99.90;;;;;;5053143;28;20049;-72
2023/01/14 05:27:43;;;;;;;0.93;0.93;;;5.40;99.90;;;;;;5038430;28;20505;-72
2023/01/14 05:30:09;;;;;;;0.90;0.90;;;5.40;99.90;;;;;;5040038;28;20022;-72
2023/01/14 05:32:35;;;;;;;8.63;1.83;;;5.40;99.90;;;;;;5033048;28;20029;-72
2023/01/14 05:35:01;;;;;;;1.20;1.20;;;5.40;99.90;;;;;;5037791;28;20450;-73
2023/01/14 05:37:26;;;;;;;3.38;2.65;;;5.40;99.90;;;;;;5051462;28;20043;-73
2023/01/14 05:39:52;;;;;;;1.27;1.25;;;5.40;99.90;;;;;;5053254;28;20021;-72
2023/01/14 05:47:45;;;;;;;0.90;0.90;;;5.30;99.90;;;;;;5044049;28;20027;-72
2023/01/14 05:50:12;;;;;;;1.17;1.17;;;5.30;99.90;;;;;;5052645;28;20029;-72
2023/01/14 05:52:37;;;;;;;1.20;1.20;;;5.20;99.90;;;;;;5040650;28;20437;-72
2023/01/14 05:55:04;;;;;;;1.20;1.20;;;5.20;99.90;;;;;;5037495;28;20033;-71
2023/01/14 05:57:29;;;;;;;1.30;1.30;;;5.20;99.90;;;;;;5040618;28;20555;-71
2023/01/14 05:59:55;;;;;;;3.30;3.10;;;5.10;99.90;;;;;;5044365;28;20056;-71
2023/01/14 06:07:49;;;;;;;1.25;1.25;;;5.10;99.90;;;;;;5048978;28;20101;-73
2023/01/14 06:10:15;;;;;;;1.15;1.15;;;5.10;99.90;;;;;;5041842;28;20045;-73
2023/01/14 06:12:58;;;;;;;1.13;1.13;;;5.10;99.90;;;;;;5038624;28;20108;-74
2023/01/14 06:15:33;;;;;;;16.48;1.95;;;5.10;99.90;;;;;;5052064;28;20100;-74
2023/01/14 06:18:09;;;;;;;1.02;1.02;;;5.10;99.90;;;;;;5048334;28;20521;-73
2023/01/14 06:20:38;;;;;;;0.88;0.88;;;4.90;99.90;;;;;;5049518;28;20082;-74
2023/01/14 06:23:05;;;;;;;1.98;1.30;;;4.90;99.90;;;;;;5040289;28;20025;-73
2023/01/14 06:25:32;;;;;;;1.00;1.00;;;4.90;99.90;;;;;;5038636;28;20080;-74
2023/01/14 06:28:02;;;;;;;1.83;1.77;;;5.00;99.90;;;;;;5051351;28;20052;-73
2023/01/14 06:30:28;;;;;;;1.00;1.00;;;5.00;99.90;;;;;;5043075;28;20483;-72
2023/01/14 06:32:54;;;;;;;2.50;2.30;;;5.00;99.90;;;;;;5040674;28;20083;-72
2023/01/14 06:35:21;;;;;;;1.00;1.00;;;5.00;99.90;;;;;;5038273;28;20030;-73
2023/01/14 06:37:46;;;;;;;1.00;1.00;;;4.90;99.90;;;;;;5049912;28;20475;-72
2023/01/14 06:40:13;;;;;;;1.00;1.00;;;4.90;99.90;;;;;;5037839;28;20037;-72
2023/01/14 06:42:40;;;;;;;1.00;1.00;;;4.80;99.90;;;;;;5042787;28;20399;-72
2023/01/14 06:45:07;;;;;;;1.00;1.00;;;4.80;99.90;;;;;;5034354;28;20018;-72
2023/01/14 06:47:32;;;;;;;1.00;1.00;;;4.80;99.90;;;;;;5051593;28;20486;-72
2023/01/14 06:49:58;;;;;;;0.98;0.98;;;4.70;99.90;;;;;;5051791;28;20096;-73
2023/01/14 06:52:23;;;;;;;1.00;1.00;;;4.70;99.90;;;;;;5041265;28;20026;-72
2023/01/14 06:54:51;;;;;;;1.00;1.00;;;4.70;99.90;;;;;;5032813;28;20033;-72
2023/01/14 06:57:17;;;;;;;0.95;0.95;;;4.70;99.90;;;;;;5052219;28;20025;-72
2023/01/14 06:59:43;;;;;;;0.95;0.95;;;4.60;99.90;;;;;;5038351;28;20032;-71
2023/01/14 07:02:11;;;;;;;1.17;1.17;;;4.60;99.90;;;;;;5051735;28;20032;-71
2023/01/14 07:04:36;;;;;;;1.77;1.77;;;4.50;99.90;;;;;;5036867;28;20021;-72
2023/01/14 07:07:02;;;;;;;1.27;1.27;;;4.60;99.90;;;;;;5040855;28;20224;-72
2023/01/14 07:09:28;;;;;;;1.08;1.08;;;4.60;99.90;;;;;;5047435;28;20095;-72
2023/01/14 07:11:54;;;;;;;1.90;1.58;;;4.60;99.90;;;;;;5042469;28;20053;-72
2023/01/14 07:14:19;;;;;;;1.52;1.45;;;4.60;99.90;;;;;;5030385;28;20029;-72
2023/01/14 07:16:45;;;;;;;1.13;1.13;;;4.60;99.90;;;;;;5040264;28;20390;-71
2023/01/14 07:19:11;;;;;;;0.93;0.93;;;4.60;99.90;;;;;;5034639;28;20017;-72
2023/01/14 07:21:37;;;;;;;1.05;1.05;;;4.60;99.90;;;;;;5031571;28;20028;-72
2023/01/14 07:24:04;;;;;;;1.10;1.10;;;4.60;99.90;;;;;;5046972;28;20021;-72
2023/01/14 07:26:29;;;;;;;4.90;4.53;;;4.60;99.90;;;;;;5042176;28;20036;-72
2023/01/14 07:28:55;;;;;;;2.08;1.98;;;4.70;99.90;;;;;;5047727;28;20021;-73
2023/01/14 07:31:21;;;;;;;9.68;9.20;;;4.70;99.90;;;;;;5051356;28;20032;-75
2023/01/14 07:33:46;;;;;;;1.00;1.00;;;4.70;99.90;;;;;;5038090;28;20487;-72
2023/01/14 07:36:12;;;;;;;0.93;0.93;;;4.80;99.90;;;;;;5051702;28;20098;-72
2023/01/14 07:38:38;;;;;;;0.80;0.80;;;4.90;99.90;;;;;;5037972;28;20115;-72
2023/01/14 07:41:22;;;;;;;0.80;0.80;;;4.90;99.90;;;;;;5041720;28;20060;-72
2023/01/14 07:43:48;;;;;;;0.80;0.80;;;4.90;99.90;;;;;;5043198;28;20040;-72
2023/01/14 07:46:15;;;;;;;0.80;0.80;;;4.90;99.90;;;;;;5043091;28;20021;-72
2023/01/14 07:48:42;;;;;;;1.15;1.15;;;4.90;99.90;;;;;;5031933;28;20029;-72
2023/01/14 07:51:08;;;;;;;0.90;0.90;;;4.90;99.90;;;;;;5044656;28;20043;-71
2023/01/14 07:53:34;;;;;;;1.08;1.08;;;4.90;99.90;;;;;;5051400;28;20020;-71
2023/01/14 07:56:01;;;;;;;1.10;1.10;;;4.90;99.90;;;;;;5040417;28;20041;-72
2023/01/14 07:58:27;;;;;;;0.90;0.90;;;4.90;99.90;;;;;;5053504;28;20031;-72
2023/01/14 08:00:55;;;;;;;2.28;2.17;;;4.90;99.90;;;;;;5042233;28;20108;-73
2023/01/14 08:03:22;;;;;;;0.90;0.90;;;4.90;99.90;;;;;;5053208;28;20028;-71
2023/01/14 08:05:48;;;;;;;0.80;0.80;;;4.90;99.90;;;;;;5039283;28;20025;-72
2023/01/14 08:08:14;;;;;;;0.98;0.98;;;5.00;99.90;;;;;;5036794;28;20025;-72
2023/01/14 08:10:40;;;;;;;1.10;1.10;;;4.90;99.90;;;;;;5052804;28;20463;-72
2023/01/14 08:13:05;;;;;;;1.00;1.00;;;5.00;99.90;;;;;;5052857;28;20029;-72
2023/01/14 08:15:31;;;;;;;0.93;0.93;;;5.00;99.90;;;;;;5053923;28;20470;-73
2023/01/14 08:17:57;;;;;;;1.00;1.00;;;5.10;99.90;;;;;;5052887;28;20036;-72
2023/01/14 08:20:23;;;;;;;0.93;0.93;;;5.20;99.90;;;;;;5054079;28;20037;-72
2023/01/14 08:22:49;;;;;;;1.25;1.25;;;5.20;99.90;;;;;;5052609;28;20049;-72
2023/01/14 08:25:15;;;;;;;1.00;1.00;;;5.20;99.90;;;;;;5053997;28;20470;-73
2023/01/14 08:27:40;;;;;;;1.10;1.10;;;5.20;99.90;;;;;;5053798;28;20021;-72
2023/01/14 08:30:07;;;;;;;0.90;0.90;;;5.20;99.90;;;;;;5041385;28;20288;-72
2023/01/14 08:32:33;;;;;;;0.85;0.85;;;5.20;99.90;;;;;;5032631;28;20033;-73
2023/01/14 08:34:58;;;;;;;1.10;1.10;;;5.30;99.90;;;;;;5040059;28;20109;-72
2023/01/14 08:37:24;;;;;;;1.08;1.08;;;5.30;99.90;;;;;;5033931;28;20049;-72
2023/01/14 08:39:49;;;;;;;0.90;0.90;;;5.30;99.90;;;;;;5032536;28;20026;-72
2023/01/14 08:42:15;;;;;;;0.95;0.95;;;5.40;99.90;;;;;;5033683;28;20522;-72
2023/01/14 08:44:41;;;;;;;1.40;1.35;;;5.40;99.90;;;;;;5033845;28;20029;-72
2023/01/14 08:47:06;;;;;;;1.05;1.05;;;5.40;99.90;;;;;;5033458;28;20289;-72
2023/01/14 08:49:32;;;;;;;1.33;1.23;;;5.50;99.90;;;;;;5046648;28;20025;-72
2023/01/14 08:51:58;;;;;;;5.38;1.85;;;5.50;99.90;;;;;;5053602;28;20040;-73
2023/01/14 08:54:24;;;;;;;0.90;0.90;;;5.40;99.90;;;;;;5053461;28;20021;-72
2023/01/14 08:56:49;;;;;;;1.25;1.25;;;5.50;99.90;;;;;;5053296;28;20031;-71
2023/01/14 08:59:15;;;;;;;0.85;0.85;;;5.50;99.90;;;;;;5054020;28;20028;-72
2023/01/14 09:01:40;;;;;;;0.82;0.82;;;5.50;99.90;;;;;;5053088;28;20037;-72
2023/01/14 09:04:06;;;;;;;1.92;1.83;;;5.50;99.90;;;;;;5052233;28;20061;-72
2023/01/14 09:17:04;;;;;;;0.80;0.80;;;5.40;99.90;;;;;;5053066;28;20079;-72
2023/01/14 09:17:38;;;;;;;1.05;1.05;;;5.50;99.90;;;;;;5052876;28;20060;-72
2023/01/14 09:20:17;;;;;;;0.70;0.70;;;5.50;99.90;;;;;;5053160;28;20029;-72
2023/01/14 09:22:44;;;;;;;1.88;1.00;;;5.50;99.90;;;;;;5034624;28;20029;-72
2023/01/14 09:25:10;;;;;;;0.65;0.65;;;5.50;99.90;;;;;;5032956;28;20029;-71
2023/01/14 09:27:36;;;;;;;0.80;0.80;;;5.60;99.90;;;;;;5038386;28;20025;-72
2023/01/14 09:30:01;;;;;;;0.65;0.65;;;5.60;99.90;;;;;;5040903;28;20391;-72
2023/01/14 09:32:27;;;;;;;0.70;0.70;;;5.60;99.90;;;;;;5033008;28;20021;-72
2023/01/14 09:34:53;;;;;;;0.60;0.60;;;5.60;99.90;;;;;;5038236;28;20071;-72
2023/01/14 09:37:21;;;;;;;0.68;0.68;;;5.70;99.90;;;;;;5032140;28;20029;-73
2023/01/14 09:39:47;;;;;;;5.35;1.08;;;5.70;99.90;;;;;;5031578;28;20506;-72
2023/01/14 09:42:36;;;;;;;0.75;0.75;;;5.70;99.90;;;;;;5032778;28;20034;-72
2023/01/14 09:45:27;;;;;;;0.70;0.70;;;5.70;99.90;;;;;;5031459;28;20021;-72
2023/01/14 09:47:56;;;;;;;0.73;0.73;;;5.80;99.90;;;;;;5032503;28;20025;-72
2023/01/14 09:50:42;;;;;;;0.60;0.60;;;5.70;99.90;;;;;;5032473;28;20097;-72
2023/01/14 09:53:45;;;;;;;0.68;0.68;;;5.80;99.90;;;;;;5021732;28;20045;-72
2023/01/14 09:56:28;;;;;;;0.80;0.80;;;5.80;99.90;;;;;;5031033;28;20049;-72
2023/01/14 09:59:10;;;;;;;0.50;0.50;;;5.90;99.90;;;;;;5030919;28;20075;-72
2023/01/14 10:01:54;;;;;;;0.70;0.70;;;6.00;99.90;;;;;;5032424;28;20025;-72
2023/01/14 10:04:56;;;;;;;0.70;0.70;;;6.00;99.90;;;;;;5030891;28;20116;-72
2023/01/14 10:07:23;;;;;;;0.70;0.70;;;6.00;99.90;;;;;;5032153;28;20044;-72
2023/01/14 10:09:56;;;;;;;0.57;0.57;;;6.10;99.90;;;;;;5032336;28;20018;-72
2023/01/14 10:12:33;;;;;;;0.60;0.60;;;6.10;99.90;;;;;;5030853;28;20499;-72
2023/01/14 10:15:18;;;;;;;0.95;0.95;;;6.10;99.90;;;;;;5032167;28;20034;-73
2023/01/14 10:17:52;;;;;;;0.70;0.70;;;6.10;99.90;;;;;;5032309;28;20083;-73
2023/01/14 10:20:33;;;;;;;0.50;0.50;;;6.00;99.90;;;;;;5031482;28;20267;-72
2023/01/14 10:23:16;;;;;;;0.60;0.60;;;6.00;99.90;;;;;;5030925;28;20513;-71
2023/01/14 10:25:49;;;;;;;0.68;0.68;;;6.00;99.90;;;;;;5032150;28;20022;-71
2023/01/14 10:28:16;;;;;;;2.75;2.55;;;6.00;99.90;;;;;;5041214;28;20087;-72
2023/01/14 10:30:42;;;;;;;5.97;0.95;;;6.10;99.90;;;;;;5033960;28;20498;-71
2023/01/14 10:33:13;;;;;;;0.70;0.70;;;6.10;99.90;;;;;;5031678;28;20025;-71
2023/01/14 10:35:41;;;;;;;0.60;0.60;;;6.10;99.90;;;;;;5038730;28;20029;-72
2023/01/14 10:38:17;;;;;;;0.50;0.50;;;6.20;99.90;;;;;;5031305;28;20034;-72
2023/01/14 10:40:44;;;;;;;0.80;0.80;;;6.20;99.90;;;;;;5031641;28;20295;-72
2023/01/14 10:43:42;;;;;;;0.50;0.50;;;6.20;99.90;;;;;;5031571;28;20084;-72
2023/01/14 10:46:18;;;;;;;0.50;0.50;;;6.20;99.90;;;;;;5029171;28;20029;-72
2023/01/14 10:48:58;;;;;;;0.50;0.50;;;6.20;99.90;;;;;;5030087;28;20057;-72
2023/01/14 10:51:38;;;;;;;0.60;0.60;;;6.20;99.90;;;;;;5031729;28;20103;-71
2023/01/14 10:54:20;;;;;;;0.50;0.50;;;6.20;99.90;;;;;;5031482;28;20030;-72
2023/01/14 10:56:52;;;;;;;0.60;0.60;;;6.20;99.90;;;;;;5031380;28;20025;-73
2023/01/14 10:59:43;;;;;;;0.40;0.40;;;6.30;99.90;;;;;;5031599;28;20045;-72
2023/01/14 11:02:31;;;;;;;0.50;0.50;;;6.20;99.90;;;;;;5046608;28;20486;-72
2023/01/14 11:04:57;;;;;;;0.40;0.40;;;6.30;99.90;;;;;;5039851;28;20026;-71
2023/01/14 11:07:35;;;;;;;0.40;0.40;;;6.40;99.90;;;;;;5041614;28;20021;-73
2023/01/14 11:10:16;;;;;;;0.50;0.50;;;6.30;99.90;;;;;;5045189;28;20467;-72
2023/01/14 11:12:42;;;;;;;0.40;0.40;;;6.40;99.90;;;;;;5051403;28;20120;-72
2023/01/14 11:15:37;;;;;;;0.40;0.40;;;6.40;99.90;;;;;;5042085;28;20111;-72
2023/01/14 11:18:18;;;;;;;0.95;0.95;;;6.50;99.90;;;;;;5038020;28;20405;-73
2023/01/14 11:21:03;;;;;;;0.50;0.50;;;6.50;99.90;;;;;;5051227;28;20032;-72
2023/01/14 11:23:32;;;;;;;0.40;0.40;;;6.60;99.90;;;;;;5051223;28;20028;-72
2023/01/14 11:26:03;;;;;;;0.50;0.50;;;6.50;99.90;;;;;;5046838;28;20025;-72
2023/01/14 11:28:29;;;;;;;0.52;0.52;;;6.60;99.90;;;;;;5047732;28;20532;-72
2023/01/14 11:30:55;;;;;;;0.70;0.70;;;6.60;99.90;;;;;;5041826;28;20103;-72
2023/01/14 11:33:23;;;;;;;0.40;0.40;;;6.60;99.90;;;;;;5042221;28;20391;-72
2023/01/14 11:35:53;;;;;;;0.57;0.57;;;6.60;99.90;;;;;;5047187;28;20025;-72
2023/01/14 11:38:21;;;;;;;0.95;0.95;;;6.60;99.90;;;;;;5047471;28;20116;-72
2023/01/14 11:43:56;;;;;;;0.45;0.45;;;6.80;99.90;;;;;;5054736;28;20032;-72
2023/01/14 11:46:21;;;;;;;0.45;0.45;;;6.80;99.90;;;;;;5054597;28;20031;-73
2023/01/14 11:49:04;;;;;;;1.80;1.20;;;6.90;99.90;;;;;;5054493;28;20112;-72
2023/01/14 11:51:30;;;;;;;0.32;0.32;;;6.80;99.90;;;;;;5053482;28;20036;-72
2023/01/14 11:53:56;;;;;;;0.75;0.75;;;6.90;99.90;;;;;;5045554;28;20034;-72
2023/01/14 11:56:35;;;;;;;0.43;0.43;;;7.00;99.90;;;;;;5036842;28;20113;-72
2023/01/14 11:59:17;;;;;;;0.50;0.50;;;7.00;99.90;;;;;;5043664;28;20025;-71
2023/01/14 12:01:51;;;;;;;0.50;0.50;;;7.00;99.90;;;;;;5039607;28;20029;-72
2023/01/14 12:04:19;;;;;;;0.90;0.90;;;7.00;99.90;;;;;;5040556;28;20021;-72
2023/01/14 12:06:54;;;;;;;1.10;1.10;;;6.90;99.90;;;;;;5041284;28;20021;-72
2023/01/14 12:09:23;;;;;;;0.55;0.55;;;7.00;99.90;;;;;;5040223;28;20079;-72
2023/01/14 12:12:00;;;;;;;0.43;0.43;;;7.00;99.90;;;;;;5044721;28;20025;-72
2023/01/14 12:17:22;;;;;;;0.52;0.52;;;6.90;99.90;;;;;;5040612;28;20072;-72
2023/01/14 12:20:11;;;;;;;0.90;0.90;;;6.90;99.90;;;;;;5046393;28;20032;-72
2023/01/14 12:23:00;;;;;;;0.60;0.60;;;6.90;99.90;;;;;;5048839;28;20096;-72
2023/01/14 12:25:32;;;;;;;1.80;1.25;;;7.00;99.90;;;;;;5048566;28;20040;-72
2023/01/14 12:28:05;;;;;;;0.50;0.50;;;7.00;99.90;;;;;;5054301;28;20462;-72
2023/01/14 12:30:52;;;;;;;1.15;1.15;;;7.00;99.90;;;;;;5036791;28;20483;-72
2023/01/14 12:33:25;;;;;;;1.75;1.65;;;7.00;99.90;;;;;;5046506;28;20099;-72
2023/01/14 12:36:19;;;;;;;1.50;1.45;;;7.00;99.90;;;;;;5039865;28;20032;-72
2023/01/14 12:47:35;;;;;;;0.40;0.40;;;7.10;99.90;;;;;;5053719;28;20102;-74
2023/01/14 12:50:08;;;;;;;1.55;1.23;;;7.10;99.90;;;;;;5053652;28;20052;-72
2023/01/14 12:52:37;;;;;;;0.38;0.38;;;7.20;99.90;;;;;;5053637;28;20108;-73
2023/01/14 12:55:05;;;;;;;2.10;1.33;;;7.20;99.90;;;;;;5053421;28;20461;-73
2023/01/14 12:57:34;;;;;;;0.50;0.50;;;7.20;99.90;;;;;;5053267;28;20024;-73
2023/01/14 13:00:07;;;;;;;0.40;0.40;;;7.20;99.90;;;;;;5051762;28;20033;-73
2023/01/14 13:02:42;;;;;;;0.40;0.40;;;7.20;99.90;;;;;;5051404;28;20044;-73
2023/01/14 13:05:29;;;;;;;0.52;0.52;;;7.20;99.90;;;;;;5051384;28;20446;-73
2023/01/14 13:08:01;;;;;;;0.47;0.47;;;7.20;99.90;;;;;;5049870;28;20021;-73
2023/01/14 13:10:35;;;;;;;0.50;0.50;;;7.20;99.90;;;;;;5051200;28;20017;-73
2023/01/14 13:13:03;;;;;;;0.57;0.57;;;7.20;99.90;;;;;;5051377;28;20028;-73
2023/01/14 13:15:35;;;;;;;0.57;0.57;;;7.20;99.90;;;;;;5051201;28;20099;-74
2023/01/14 13:18:25;;;;;;;0.50;0.50;;;7.20;99.90;;;;;;5052705;28;20022;-75
2023/01/14 13:20:52;;;;;;;0.88;0.88;;;7.10;99.90;;;;;;5052630;28;20104;-75
2023/01/14 13:23:43;;;;;;;4.65;4.35;;;7.20;99.90;;;;;;5053295;28;20021;-75
2023/01/14 13:26:20;;;;;;;4.40;0.75;;;7.10;99.90;;;;;;5047149;28;20090;-73
2023/01/14 13:29:15;;;;;;;0.47;0.47;;;7.20;99.90;;;;;;5049766;28;20060;-73
2023/01/14 13:31:41;;;;;;;1.42;1.33;;;7.10;99.90;;;;;;5031096;28;20076;-73
2023/01/14 13:34:22;;;;;;;10.02;1.40;;;7.10;99.90;;;;;;5030947;28;20037;-72
2023/01/14 13:37:08;;;;;;;0.50;0.50;;;7.10;99.90;;;;;;5059350;22;20096;-73
2023/01/14 13:39:34;;;;;;;0.50;0.50;;;7.10;99.90;;;;;;5050417;28;20036;-73
2023/01/14 13:42:13;;;;;;;0.50;0.50;;;7.10;99.90;;;;;;5050473;28;20052;-73
2023/01/14 13:44:48;;;;;;;0.70;0.70;;;7.10;99.90;;;;;;5038233;28;20457;-73
2023/01/14 13:47:21;;;;;;;0.60;0.60;;;7.10;99.90;;;;;;5032053;28;20413;-74
2023/01/14 13:50:04;;;;;;;1.23;1.15;;;7.10;99.90;;;;;;5030496;28;20025;-73
2023/01/14 13:52:35;;;;;;;0.57;0.57;;;7.10;99.90;;;;;;5031022;28;20512;-74
2023/01/14 13:55:17;;;;;;;0.63;0.63;;;7.10;99.90;;;;;;5030990;28;20031;-73
2023/01/14 13:57:49;;;;;;;0.60;0.60;;;7.20;99.90;;;;;;5032156;28;20180;-73
2023/01/14 14:00:23;;;;;;;0.50;0.50;;;7.10;99.90;;;;;;5030885;28;20083;-75